sensor_id;sensor_type;location;lat;lon;timestamp;temperature;humidity
20866;DHT22;10593;48.398;10.698;2023-05-10T00:02:09;19.60;58.50
20866;DHT22;10593;48.398;10.698;2023-05-10T00:04:35;19.50;58.40
20866;DHT22;10593;48.398;10.698;2023-05-10T00:07:00;19.50;58.50
20866;DHT22;10593;48.398;10.698;2023-05-10T00:09:26;19.50;58.50
20866;DHT22;10593;48.398;10.698;2023-05-10T00:11:52;19.50;58.60
20866;DHT22;10593;48.398;10.698;2023-05-10T00:14:18;19.50;58.70
20866;DHT22;10593;48.398;10.698;2023-05-10T00:16:44;19.50;58.80
20866;DHT22;10593;48.398;10.698;2023-05-10T00:19:10;19.50;58.90
20866;DHT22;10593;48.398;10.698;2023-05-10T00:21:35;19.40;58.80
20866;DHT22;10593;48.398;10.698;2023-05-10T00:24:01;19.50;59.00
20866;DHT22;10593;48.398;10.698;2023-05-10T00:26:27;19.40;59.00
20866;DHT22;10593;48.398;10.698;2023-05-10T00:28:53;19.40;59.00
20866;DHT22;10593;48.398;10.698;2023-05-10T00:31:18;19.40;59.00
20866;DHT22;10593;48.398;10.698;2023-05-10T00:33:44;19.40;59.10
20866;DHT22;10593;48.398;10.698;2023-05-10T00:36:10;19.40;59.10
20866;DHT22;10593;48.398;10.698;2023-05-10T00:38:36;19.40;59.10
20866;DHT22;10593;48.398;10.698;2023-05-10T00:41:02;19.40;59.10
20866;DHT22;10593;48.398;10.698;2023-05-10T00:43:28;19.40;59.10
20866;DHT22;10593;48.398;10.698;2023-05-10T00:45:54;19.30;59.00
20866;DHT22;10593;48.398;10.698;2023-05-10T00:48:21;19.30;59.10
20866;DHT22;10593;48.398;10.698;2023-05-10T00:50:47;19.30;59.30
20866;DHT22;10593;48.398;10.698;2023-05-10T00:53:13;19.30;59.20
20866;DHT22;10593;48.398;10.698;2023-05-10T00:55:40;19.30;59.30
20866;DHT22;10593;48.398;10.698;2023-05-10T00:58:05;19.30;59.30
20866;DHT22;10593;48.398;10.698;2023-05-10T01:00:32;19.30;59.80
20866;DHT22;10593;48.398;10.698;2023-05-10T01:02:58;19.30;59.20
20866;DHT22;10593;48.398;10.698;2023-05-10T01:05:25;19.30;59.10
20866;DHT22;10593;48.398;10.698;2023-05-10T01:07:52;19.30;59.10
20866;DHT22;10593;48.398;10.698;2023-05-10T01:10:18;19.30;59.20
20866;DHT22;10593;48.398;10.698;2023-05-10T01:12:45;19.30;59.20
20866;DHT22;10593;48.398;10.698;2023-05-10T01:15:13;19.30;59.30
20866;DHT22;10593;48.398;10.698;2023-05-10T01:17:42;19.20;59.20
20866;DHT22;10593;48.398;10.698;2023-05-10T01:20:11;19.20;59.10
20866;DHT22;10593;48.398;10.698;2023-05-10T01:26:22;19.20;59.30
20866;DHT22;10593;48.398;10.698;2023-05-10T01:29:11;19.20;59.00
20866;DHT22;10593;48.398;10.698;2023-05-10T01:32:21;19.20;59.50
20866;DHT22;10593;48.398;10.698;2023-05-10T01:35:17;19.20;59.00
20866;DHT22;10593;48.398;10.698;2023-05-10T01:40:37;19.10;59.00
20866;DHT22;10593;48.398;10.698;2023-05-10T01:43:13;19.10;59.00
20866;DHT22;10593;48.398;10.698;2023-05-10T01:48:51;19.00;59.20
20866;DHT22;10593;48.398;10.698;2023-05-10T01:51:23;19.00;59.00
20866;DHT22;10593;48.398;10.698;2023-05-10T01:53:59;19.00;59.10
20866;DHT22;10593;48.398;10.698;2023-05-10T01:56:30;19.00;59.20
20866;DHT22;10593;48.398;10.698;2023-05-10T01:58:58;19.00;59.20
20866;DHT22;10593;48.398;10.698;2023-05-10T02:01:26;19.00;59.10
20866;DHT22;10593;48.398;10.698;2023-05-10T02:03:53;18.90;59.10
20866;DHT22;10593;48.398;10.698;2023-05-10T02:06:22;19.00;59.20
20866;DHT22;10593;48.398;10.698;2023-05-10T02:08:49;18.90;59.20
20866;DHT22;10593;48.398;10.698;2023-05-10T02:11:17;18.90;59.20
20866;DHT22;10593;48.398;10.698;2023-05-10T02:13:47;18.90;59.30
20866;DHT22;10593;48.398;10.698;2023-05-10T02:16:16;18.90;59.20
20866;DHT22;10593;48.398;10.698;2023-05-10T02:18:46;18.90;59.20
20866;DHT22;10593;48.398;10.698;2023-05-10T02:21:14;18.90;59.20
20866;DHT22;10593;48.398;10.698;2023-05-10T02:23:42;18.80;59.20
20866;DHT22;10593;48.398;10.698;2023-05-10T02:26:08;18.90;59.30
20866;DHT22;10593;48.398;10.698;2023-05-10T02:28:37;18.80;59.20
20866;DHT22;10593;48.398;10.698;2023-05-10T02:31:05;18.80;59.30
20866;DHT22;10593;48.398;10.698;2023-05-10T02:33:33;18.80;59.30
20866;DHT22;10593;48.398;10.698;2023-05-10T02:36:01;18.80;59.30
20866;DHT22;10593;48.398;10.698;2023-05-10T02:38:28;18.80;59.30
20866;DHT22;10593;48.398;10.698;2023-05-10T02:40:57;18.80;59.30
20866;DHT22;10593;48.398;10.698;2023-05-10T02:43:24;18.80;59.40
20866;DHT22;10593;48.398;10.698;2023-05-10T02:45:51;18.70;59.30
20866;DHT22;10593;48.398;10.698;2023-05-10T02:48:17;18.70;59.40
20866;DHT22;10593;48.398;10.698;2023-05-10T02:50:47;18.70;59.40
20866;DHT22;10593;48.398;10.698;2023-05-10T02:53:22;18.70;59.50
20866;DHT22;10593;48.398;10.698;2023-05-10T02:55:58;18.70;59.50
20866;DHT22;10593;48.398;10.698;2023-05-10T02:58:26;18.70;59.50
20866;DHT22;10593;48.398;10.698;2023-05-10T03:00:52;18.70;59.40
20866;DHT22;10593;48.398;10.698;2023-05-10T03:03:19;18.70;59.40
20866;DHT22;10593;48.398;10.698;2023-05-10T03:05:45;18.70;59.50
20866;DHT22;10593;48.398;10.698;2023-05-10T03:08:11;18.60;59.40
20866;DHT22;10593;48.398;10.698;2023-05-10T03:14:10;18.60;59.60
20866;DHT22;10593;48.398;10.698;2023-05-10T03:16:49;18.60;59.60
20866;DHT22;10593;48.398;10.698;2023-05-10T03:19:35;18.60;59.60
20866;DHT22;10593;48.398;10.698;2023-05-10T03:22:26;18.60;59.70
20866;DHT22;10593;48.398;10.698;2023-05-10T03:25:00;18.60;59.60
20866;DHT22;10593;48.398;10.698;2023-05-10T03:27:32;18.50;59.50
20866;DHT22;10593;48.398;10.698;2023-05-10T03:30:01;18.50;59.60
20866;DHT22;10593;48.398;10.698;2023-05-10T03:32:29;18.50;59.60
20866;DHT22;10593;48.398;10.698;2023-05-10T03:34:55;18.50;59.60
20866;DHT22;10593;48.398;10.698;2023-05-10T03:37:21;18.50;59.50
20866;DHT22;10593;48.398;10.698;2023-05-10T03:39:46;18.50;59.50
20866;DHT22;10593;48.398;10.698;2023-05-10T03:42:12;18.50;59.30
20866;DHT22;10593;48.398;10.698;2023-05-10T03:44:39;18.50;59.20
20866;DHT22;10593;48.398;10.698;2023-05-10T03:47:05;18.40;59.10
20866;DHT22;10593;48.398;10.698;2023-05-10T03:49:30;18.40;59.00
20866;DHT22;10593;48.398;10.698;2023-05-10T03:51:56;18.40;58.90
20866;DHT22;10593;48.398;10.698;2023-05-10T03:54:22;18.40;58.90
20866;DHT22;10593;48.398;10.698;2023-05-10T03:56:47;18.40;58.90
20866;DHT22;10593;48.398;10.698;2023-05-10T03:59:13;18.40;59.50
20866;DHT22;10593;48.398;10.698;2023-05-10T04:01:39;18.30;58.90
20866;DHT22;10593;48.398;10.698;2023-05-10T04:04:04;18.30;58.90
20866;DHT22;10593;48.398;10.698;2023-05-10T04:06:30;18.30;59.00
20866;DHT22;10593;48.398;10.698;2023-05-10T04:08:56;18.30;58.90
20866;DHT22;10593;48.398;10.698;2023-05-10T04:11:25;18.30;58.80
20866;DHT22;10593;48.398;10.698;2023-05-10T04:13:50;18.30;58.70
20866;DHT22;10593;48.398;10.698;2023-05-10T04:16:16;18.20;58.70
20866;DHT22;10593;48.398;10.698;2023-05-10T04:18:42;18.20;58.70
20866;DHT22;10593;48.398;10.698;2023-05-10T04:21:14;18.20;58.70
20866;DHT22;10593;48.398;10.698;2023-05-10T04:23:40;18.20;58.80
20866;DHT22;10593;48.398;10.698;2023-05-10T04:26:05;18.20;58.70
20866;DHT22;10593;48.398;10.698;2023-05-10T04:28:32;18.20;58.70
20866;DHT22;10593;48.398;10.698;2023-05-10T04:31:02;18.20;58.70
20866;DHT22;10593;48.398;10.698;2023-05-10T04:33:29;18.10;58.70
20866;DHT22;10593;48.398;10.698;2023-05-10T04:35:55;18.10;58.70
20866;DHT22;10593;48.398;10.698;2023-05-10T04:38:20;18.10;58.80
20866;DHT22;10593;48.398;10.698;2023-05-10T04:40:46;18.10;58.80
20866;DHT22;10593;48.398;10.698;2023-05-10T04:43:11;18.10;58.90
20866;DHT22;10593;48.398;10.698;2023-05-10T04:45:37;18.10;58.90
20866;DHT22;10593;48.398;10.698;2023-05-10T04:48:03;18.10;59.00
20866;DHT22;10593;48.398;10.698;2023-05-10T04:50:29;18.10;59.10
20866;DHT22;10593;48.398;10.698;2023-05-10T04:52:55;18.10;59.20
20866;DHT22;10593;48.398;10.698;2023-05-10T04:55:20;18.00;59.00
20866;DHT22;10593;48.398;10.698;2023-05-10T04:57:46;18.00;59.10
20866;DHT22;10593;48.398;10.698;2023-05-10T05:00:12;18.00;59.20
20866;DHT22;10593;48.398;10.698;2023-05-10T05:02:38;18.00;59.30
20866;DHT22;10593;48.398;10.698;2023-05-10T05:05:07;18.00;59.40
20866;DHT22;10593;48.398;10.698;2023-05-10T05:07:33;18.10;59.60
20866;DHT22;10593;48.398;10.698;2023-05-10T05:09:59;18.00;59.60
20866;DHT22;10593;48.398;10.698;2023-05-10T05:12:24;18.00;59.60
20866;DHT22;10593;48.398;10.698;2023-05-10T05:14:50;18.00;60.30
20866;DHT22;10593;48.398;10.698;2023-05-10T05:17:15;18.00;59.70
20866;DHT22;10593;48.398;10.698;2023-05-10T05:19:41;18.00;59.80
20866;DHT22;10593;48.398;10.698;2023-05-10T05:22:07;18.00;59.80
20866;DHT22;10593;48.398;10.698;2023-05-10T05:24:37;18.10;59.90
20866;DHT22;10593;48.398;10.698;2023-05-10T05:27:03;18.00;59.90
20866;DHT22;10593;48.398;10.698;2023-05-10T05:29:29;18.00;59.80
20866;DHT22;10593;48.398;10.698;2023-05-10T05:31:55;18.00;59.80
20866;DHT22;10593;48.398;10.698;2023-05-10T05:34:20;18.00;59.90
20866;DHT22;10593;48.398;10.698;2023-05-10T05:36:47;18.00;59.90
20866;DHT22;10593;48.398;10.698;2023-05-10T05:39:13;18.00;60.50
20866;DHT22;10593;48.398;10.698;2023-05-10T05:41:38;18.10;60.00
20866;DHT22;10593;48.398;10.698;2023-05-10T05:44:04;18.10;60.00
20866;DHT22;10593;48.398;10.698;2023-05-10T05:46:30;18.10;60.00
20866;DHT22;10593;48.398;10.698;2023-05-10T05:48:55;18.10;60.10
20866;DHT22;10593;48.398;10.698;2023-05-10T05:51:21;18.10;60.00
20866;DHT22;10593;48.398;10.698;2023-05-10T05:53:47;18.10;60.00
20866;DHT22;10593;48.398;10.698;2023-05-10T05:56:12;18.10;60.10
20866;DHT22;10593;48.398;10.698;2023-05-10T05:58:39;18.10;60.20
20866;DHT22;10593;48.398;10.698;2023-05-10T06:01:04;18.10;60.20
20866;DHT22;10593;48.398;10.698;2023-05-10T06:03:30;18.10;60.20
20866;DHT22;10593;48.398;10.698;2023-05-10T06:05:56;18.10;60.30
20866;DHT22;10593;48.398;10.698;2023-05-10T06:08:21;18.10;60.40
20866;DHT22;10593;48.398;10.698;2023-05-10T06:10:47;18.10;60.40
20866;DHT22;10593;48.398;10.698;2023-05-10T06:13:13;18.10;60.40
20866;DHT22;10593;48.398;10.698;2023-05-10T06:15:39;18.10;60.30
20866;DHT22;10593;48.398;10.698;2023-05-10T06:18:05;18.10;60.30
20866;DHT22;10593;48.398;10.698;2023-05-10T06:20:31;18.10;60.40
20866;DHT22;10593;48.398;10.698;2023-05-10T06:22:57;18.10;60.30
20866;DHT22;10593;48.398;10.698;2023-05-10T06:25:23;18.10;60.20
20866;DHT22;10593;48.398;10.698;2023-05-10T06:27:49;18.10;60.20
20866;DHT22;10593;48.398;10.698;2023-05-10T06:30:15;18.10;60.20
20866;DHT22;10593;48.398;10.698;2023-05-10T06:32:41;18.10;60.20
20866;DHT22;10593;48.398;10.698;2023-05-10T06:35:09;18.10;60.20
20866;DHT22;10593;48.398;10.698;2023-05-10T06:37:35;18.10;60.00
20866;DHT22;10593;48.398;10.698;2023-05-10T06:40:00;18.10;60.00
20866;DHT22;10593;48.398;10.698;2023-05-10T06:42:27;18.10;60.10
20866;DHT22;10593;48.398;10.698;2023-05-10T06:44:52;18.10;60.10
20866;DHT22;10593;48.398;10.698;2023-05-10T06:47:18;18.10;60.10
20866;DHT22;10593;48.398;10.698;2023-05-10T06:49:44;18.10;60.10
20866;DHT22;10593;48.398;10.698;2023-05-10T06:52:09;18.10;60.10
20866;DHT22;10593;48.398;10.698;2023-05-10T06:54:35;18.20;60.20
20866;DHT22;10593;48.398;10.698;2023-05-10T06:57:01;18.20;60.30
20866;DHT22;10593;48.398;10.698;2023-05-10T06:59:28;18.20;60.20
20866;DHT22;10593;48.398;10.698;2023-05-10T07:01:54;18.20;60.20
20866;DHT22;10593;48.398;10.698;2023-05-10T07:04:20;18.20;60.20
20866;DHT22;10593;48.398;10.698;2023-05-10T07:06:45;18.20;60.10
20866;DHT22;10593;48.398;10.698;2023-05-10T07:09:11;18.20;59.90
20866;DHT22;10593;48.398;10.698;2023-05-10T07:11:38;18.30;60.10
20866;DHT22;10593;48.398;10.698;2023-05-10T07:14:04;18.30;60.10
20866;DHT22;10593;48.398;10.698;2023-05-10T07:16:30;18.30;59.90
20866;DHT22;10593;48.398;10.698;2023-05-10T07:18:56;18.30;59.90
20866;DHT22;10593;48.398;10.698;2023-05-10T07:21:21;18.30;59.90
20866;DHT22;10593;48.398;10.698;2023-05-10T07:23:49;18.30;59.90
20866;DHT22;10593;48.398;10.698;2023-05-10T07:26:15;18.30;59.90
20866;DHT22;10593;48.398;10.698;2023-05-10T07:28:41;18.30;59.90
20866;DHT22;10593;48.398;10.698;2023-05-10T07:31:07;18.30;59.80
20866;DHT22;10593;48.398;10.698;2023-05-10T07:33:32;18.30;59.80
20866;DHT22;10593;48.398;10.698;2023-05-10T07:35:58;18.40;59.90
20866;DHT22;10593;48.398;10.698;2023-05-10T07:38:24;18.40;59.80
20866;DHT22;10593;48.398;10.698;2023-05-10T07:40:49;18.40;59.70
20866;DHT22;10593;48.398;10.698;2023-05-10T07:43:15;18.40;59.60
20866;DHT22;10593;48.398;10.698;2023-05-10T07:45:41;18.40;59.80
20866;DHT22;10593;48.398;10.698;2023-05-10T07:48:07;18.50;60.00
20866;DHT22;10593;48.398;10.698;2023-05-10T07:50:32;18.50;59.90
20866;DHT22;10593;48.398;10.698;2023-05-10T07:52:58;18.50;59.60
20866;DHT22;10593;48.398;10.698;2023-05-10T07:55:24;18.50;59.50
20866;DHT22;10593;48.398;10.698;2023-05-10T07:57:49;18.50;59.50
20866;DHT22;10593;48.398;10.698;2023-05-10T08:00:19;18.60;59.40
20866;DHT22;10593;48.398;10.698;2023-05-10T08:02:46;18.60;59.20
20866;DHT22;10593;48.398;10.698;2023-05-10T08:05:12;18.60;59.20
20866;DHT22;10593;48.398;10.698;2023-05-10T08:07:38;18.60;59.30
20866;DHT22;10593;48.398;10.698;2023-05-10T08:10:05;18.60;59.20
20866;DHT22;10593;48.398;10.698;2023-05-10T08:12:31;18.60;59.30
20866;DHT22;10593;48.398;10.698;2023-05-10T08:14:57;18.60;59.60
20866;DHT22;10593;48.398;10.698;2023-05-10T08:17:23;18.60;58.90
20866;DHT22;10593;48.398;10.698;2023-05-10T08:19:48;18.60;58.80
20866;DHT22;10593;48.398;10.698;2023-05-10T08:22:14;18.60;58.50
20866;DHT22;10593;48.398;10.698;2023-05-10T08:24:39;18.70;58.50
20866;DHT22;10593;48.398;10.698;2023-05-10T08:27:07;18.60;58.50
20866;DHT22;10593;48.398;10.698;2023-05-10T08:29:34;18.70;58.60
20866;DHT22;10593;48.398;10.698;2023-05-10T08:31:59;18.60;58.80
20866;DHT22;10593;48.398;10.698;2023-05-10T08:34:26;18.70;58.90
20866;DHT22;10593;48.398;10.698;2023-05-10T08:36:52;18.70;58.90
20866;DHT22;10593;48.398;10.698;2023-05-10T08:39:18;18.70;59.00
20866;DHT22;10593;48.398;10.698;2023-05-10T08:41:45;18.70;59.00
20866;DHT22;10593;48.398;10.698;2023-05-10T08:44:13;18.70;58.80
20866;DHT22;10593;48.398;10.698;2023-05-10T08:46:41;18.70;58.60
20866;DHT22;10593;48.398;10.698;2023-05-10T08:49:13;18.80;58.60
20866;DHT22;10593;48.398;10.698;2023-05-10T08:51:49;18.80;58.60
20866;DHT22;10593;48.398;10.698;2023-05-10T08:54:17;18.80;58.60
20866;DHT22;10593;48.398;10.698;2023-05-10T08:56:43;18.80;58.60
20866;DHT22;10593;48.398;10.698;2023-05-10T08:59:09;18.80;58.50
20866;DHT22;10593;48.398;10.698;2023-05-10T09:01:35;18.80;58.50
20866;DHT22;10593;48.398;10.698;2023-05-10T09:04:02;18.80;58.50
20866;DHT22;10593;48.398;10.698;2023-05-10T09:06:29;18.80;58.40
20866;DHT22;10593;48.398;10.698;2023-05-10T09:08:55;18.80;58.40
20866;DHT22;10593;48.398;10.698;2023-05-10T09:11:22;18.80;58.40
20866;DHT22;10593;48.398;10.698;2023-05-10T09:13:50;18.80;58.40
20866;DHT22;10593;48.398;10.698;2023-05-10T09:16:17;18.80;58.30
20866;DHT22;10593;48.398;10.698;2023-05-10T09:18:43;18.80;58.40
20866;DHT22;10593;48.398;10.698;2023-05-10T09:21:09;18.80;58.40
20866;DHT22;10593;48.398;10.698;2023-05-10T09:23:36;18.80;58.40
20866;DHT22;10593;48.398;10.698;2023-05-10T09:26:05;18.80;58.50
20866;DHT22;10593;48.398;10.698;2023-05-10T09:28:34;18.80;58.40
20866;DHT22;10593;48.398;10.698;2023-05-10T09:31:16;18.80;58.30
20866;DHT22;10593;48.398;10.698;2023-05-10T09:33:46;18.80;58.20
20866;DHT22;10593;48.398;10.698;2023-05-10T09:36:13;18.80;58.40
20866;DHT22;10593;48.398;10.698;2023-05-10T09:38:50;18.80;58.50
20866;DHT22;10593;48.398;10.698;2023-05-10T09:41:25;18.80;58.10
20866;DHT22;10593;48.398;10.698;2023-05-10T09:43:55;18.80;58.00
20866;DHT22;10593;48.398;10.698;2023-05-10T09:46:22;18.80;57.90
20866;DHT22;10593;48.398;10.698;2023-05-10T09:48:51;18.80;57.80
20866;DHT22;10593;48.398;10.698;2023-05-10T09:51:24;18.80;57.70
20866;DHT22;10593;48.398;10.698;2023-05-10T09:54:13;18.80;57.40
20866;DHT22;10593;48.398;10.698;2023-05-10T09:56:40;18.80;57.50
20866;DHT22;10593;48.398;10.698;2023-05-10T09:59:09;18.80;57.70
20866;DHT22;10593;48.398;10.698;2023-05-10T10:01:36;18.80;57.90
20866;DHT22;10593;48.398;10.698;2023-05-10T10:04:06;18.80;58.00
20866;DHT22;10593;48.398;10.698;2023-05-10T10:06:37;18.80;58.10
20866;DHT22;10593;48.398;10.698;2023-05-10T10:09:06;18.80;58.50
20866;DHT22;10593;48.398;10.698;2023-05-10T10:11:34;18.90;58.70
20866;DHT22;10593;48.398;10.698;2023-05-10T10:14:01;18.90;59.00
20866;DHT22;10593;48.398;10.698;2023-05-10T10:16:29;18.90;59.00
20866;DHT22;10593;48.398;10.698;2023-05-10T10:18:56;18.90;59.00
20866;DHT22;10593;48.398;10.698;2023-05-10T10:21:22;18.90;58.90
20866;DHT22;10593;48.398;10.698;2023-05-10T10:23:48;19.00;58.80
20866;DHT22;10593;48.398;10.698;2023-05-10T10:26:16;19.00;58.80
20866;DHT22;10593;48.398;10.698;2023-05-10T10:29:05;19.00;58.70
20866;DHT22;10593;48.398;10.698;2023-05-10T10:34:28;19.10;58.40
20866;DHT22;10593;48.398;10.698;2023-05-10T10:36:57;19.20;58.20
20866;DHT22;10593;48.398;10.698;2023-05-10T10:39:24;19.20;58.00
20866;DHT22;10593;48.398;10.698;2023-05-10T10:41:56;19.20;57.80
20866;DHT22;10593;48.398;10.698;2023-05-10T10:44:23;19.20;57.50
20866;DHT22;10593;48.398;10.698;2023-05-10T10:52:25;19.30;56.60
20866;DHT22;10593;48.398;10.698;2023-05-10T10:55:07;19.30;56.40
20866;DHT22;10593;48.398;10.698;2023-05-10T10:57:52;19.30;56.60
20866;DHT22;10593;48.398;10.698;2023-05-10T11:00:28;19.40;56.20
20866;DHT22;10593;48.398;10.698;2023-05-10T11:08:28;19.40;56.30
20866;DHT22;10593;48.398;10.698;2023-05-10T11:18:56;19.40;55.80
20866;DHT22;10593;48.398;10.698;2023-05-10T11:21:24;19.40;56.30
20866;DHT22;10593;48.398;10.698;2023-05-10T11:23:53;19.40;55.90
20866;DHT22;10593;48.398;10.698;2023-05-10T11:26:24;19.40;55.90
20866;DHT22;10593;48.398;10.698;2023-05-10T11:28:55;19.40;55.80
20866;DHT22;10593;48.398;10.698;2023-05-10T11:31:21;19.40;55.80
20866;DHT22;10593;48.398;10.698;2023-05-10T11:33:53;19.40;55.80
20866;DHT22;10593;48.398;10.698;2023-05-10T11:36:23;19.40;55.70
20866;DHT22;10593;48.398;10.698;2023-05-10T11:38:51;19.40;55.60
20866;DHT22;10593;48.398;10.698;2023-05-10T11:41:18;19.50;55.80
20866;DHT22;10593;48.398;10.698;2023-05-10T11:43:49;19.50;55.80
20866;DHT22;10593;48.398;10.698;2023-05-10T11:46:18;19.50;55.60
20866;DHT22;10593;48.398;10.698;2023-05-10T11:48:47;19.50;54.70
20866;DHT22;10593;48.398;10.698;2023-05-10T11:51:19;19.50;54.70
20866;DHT22;10593;48.398;10.698;2023-05-10T11:53:50;19.50;54.20
20866;DHT22;10593;48.398;10.698;2023-05-10T11:56:17;19.50;54.10
20866;DHT22;10593;48.398;10.698;2023-05-10T11:58:43;19.50;54.10
20866;DHT22;10593;48.398;10.698;2023-05-10T12:01:09;19.50;53.90
20866;DHT22;10593;48.398;10.698;2023-05-10T12:03:36;19.50;53.60
20866;DHT22;10593;48.398;10.698;2023-05-10T12:06:02;19.50;53.70
20866;DHT22;10593;48.398;10.698;2023-05-10T12:08:29;19.60;54.00
20866;DHT22;10593;48.398;10.698;2023-05-10T12:11:09;19.60;53.80
20866;DHT22;10593;48.398;10.698;2023-05-10T12:13:38;19.60;53.40
20866;DHT22;10593;48.398;10.698;2023-05-10T12:16:28;19.60;53.70
20866;DHT22;10593;48.398;10.698;2023-05-10T12:18:59;19.50;52.90
20866;DHT22;10593;48.398;10.698;2023-05-10T12:21:27;19.60;53.40
20866;DHT22;10593;48.398;10.698;2023-05-10T12:23:58;19.60;53.60
20866;DHT22;10593;48.398;10.698;2023-05-10T12:26:25;19.60;53.70
20866;DHT22;10593;48.398;10.698;2023-05-10T12:28:53;19.70;53.70
20866;DHT22;10593;48.398;10.698;2023-05-10T12:31:19;19.70;53.30
20866;DHT22;10593;48.398;10.698;2023-05-10T12:33:46;19.70;53.30
20866;DHT22;10593;48.398;10.698;2023-05-10T12:36:13;19.70;53.20
20866;DHT22;10593;48.398;10.698;2023-05-10T12:38:42;19.70;52.80
20866;DHT22;10593;48.398;10.698;2023-05-10T12:41:16;19.70;52.70
20866;DHT22;10593;48.398;10.698;2023-05-10T12:43:43;19.70;52.60
20866;DHT22;10593;48.398;10.698;2023-05-10T12:48:37;19.70;52.30
20866;DHT22;10593;48.398;10.698;2023-05-10T12:51:05;19.70;52.20
20866;DHT22;10593;48.398;10.698;2023-05-10T12:53:34;19.70;51.80
20866;DHT22;10593;48.398;10.698;2023-05-10T12:56:01;19.70;51.10
20866;DHT22;10593;48.398;10.698;2023-05-10T12:58:26;19.70;50.90
20866;DHT22;10593;48.398;10.698;2023-05-10T13:00:52;19.70;51.10
20866;DHT22;10593;48.398;10.698;2023-05-10T13:03:18;19.70;51.30
20866;DHT22;10593;48.398;10.698;2023-05-10T13:05:44;19.70;51.50
20866;DHT22;10593;48.398;10.698;2023-05-10T13:08:10;19.70;51.50
20866;DHT22;10593;48.398;10.698;2023-05-10T13:10:35;19.60;51.50
20866;DHT22;10593;48.398;10.698;2023-05-10T13:13:01;19.60;51.80
20866;DHT22;10593;48.398;10.698;2023-05-10T13:15:28;19.50;51.80
20866;DHT22;10593;48.398;10.698;2023-05-10T13:17:54;19.50;51.70
20866;DHT22;10593;48.398;10.698;2023-05-10T13:20:20;19.50;51.80
20866;DHT22;10593;48.398;10.698;2023-05-10T13:22:46;19.40;51.80
20866;DHT22;10593;48.398;10.698;2023-05-10T13:25:12;19.40;51.90
20866;DHT22;10593;48.398;10.698;2023-05-10T13:27:41;19.40;52.20
20866;DHT22;10593;48.398;10.698;2023-05-10T13:30:08;19.40;52.20
20866;DHT22;10593;48.398;10.698;2023-05-10T13:32:34;19.40;52.30
20866;DHT22;10593;48.398;10.698;2023-05-10T13:35:01;19.40;52.50
20866;DHT22;10593;48.398;10.698;2023-05-10T13:37:29;19.40;52.60
20866;DHT22;10593;48.398;10.698;2023-05-10T13:39:55;19.40;52.80
20866;DHT22;10593;48.398;10.698;2023-05-10T13:42:22;19.40;53.00
20866;DHT22;10593;48.398;10.698;2023-05-10T13:44:49;19.30;52.50
20866;DHT22;10593;48.398;10.698;2023-05-10T13:47:15;19.40;52.40
20866;DHT22;10593;48.398;10.698;2023-05-10T13:49:41;19.30;52.30
20866;DHT22;10593;48.398;10.698;2023-05-10T13:52:07;19.30;52.50
20866;DHT22;10593;48.398;10.698;2023-05-10T13:54:33;19.30;52.90
20866;DHT22;10593;48.398;10.698;2023-05-10T13:56:59;19.20;53.20
20866;DHT22;10593;48.398;10.698;2023-05-10T13:59:25;19.20;53.50
20866;DHT22;10593;48.398;10.698;2023-05-10T14:01:51;19.20;53.60
20866;DHT22;10593;48.398;10.698;2023-05-10T14:04:17;19.20;53.80
20866;DHT22;10593;48.398;10.698;2023-05-10T14:06:42;19.10;53.90
20866;DHT22;10593;48.398;10.698;2023-05-10T14:09:08;19.10;54.00
20866;DHT22;10593;48.398;10.698;2023-05-10T14:11:34;19.00;54.20
20866;DHT22;10593;48.398;10.698;2023-05-10T14:13:59;19.00;54.40
20866;DHT22;10593;48.398;10.698;2023-05-10T14:16:25;19.00;54.60
20866;DHT22;10593;48.398;10.698;2023-05-10T14:18:52;19.00;54.90
20866;DHT22;10593;48.398;10.698;2023-05-10T14:21:17;18.90;55.00
20866;DHT22;10593;48.398;10.698;2023-05-10T14:23:43;18.90;55.30
20866;DHT22;10593;48.398;10.698;2023-05-10T14:26:09;18.90;55.70
20866;DHT22;10593;48.398;10.698;2023-05-10T14:28:34;18.90;55.60
20866;DHT22;10593;48.398;10.698;2023-05-10T14:31:00;18.80;55.30
20866;DHT22;10593;48.398;10.698;2023-05-10T14:33:26;18.80;55.40
20866;DHT22;10593;48.398;10.698;2023-05-10T14:35:51;18.80;55.50
20866;DHT22;10593;48.398;10.698;2023-05-10T14:38:19;18.80;55.30
20866;DHT22;10593;48.398;10.698;2023-05-10T14:40:45;18.80;55.40
20866;DHT22;10593;48.398;10.698;2023-05-10T14:43:10;18.80;55.60
20866;DHT22;10593;48.398;10.698;2023-05-10T14:45:36;18.80;55.70
20866;DHT22;10593;48.398;10.698;2023-05-10T14:48:01;18.80;55.60
20866;DHT22;10593;48.398;10.698;2023-05-10T14:50:30;18.70;55.50
20866;DHT22;10593;48.398;10.698;2023-05-10T14:52:57;18.70;55.20
20866;DHT22;10593;48.398;10.698;2023-05-10T14:55:23;18.70;55.10
20866;DHT22;10593;48.398;10.698;2023-05-10T14:57:49;18.70;55.10
20866;DHT22;10593;48.398;10.698;2023-05-10T15:00:16;18.70;55.10
20866;DHT22;10593;48.398;10.698;2023-05-10T15:02:42;18.70;55.00
20866;DHT22;10593;48.398;10.698;2023-05-10T15:05:08;18.60;54.70
20866;DHT22;10593;48.398;10.698;2023-05-10T15:07:33;18.60;55.20
20866;DHT22;10593;48.398;10.698;2023-05-10T15:09:59;18.50;54.80
20866;DHT22;10593;48.398;10.698;2023-05-10T15:12:25;18.50;55.00
20866;DHT22;10593;48.398;10.698;2023-05-10T15:14:51;18.50;55.00
20866;DHT22;10593;48.398;10.698;2023-05-10T15:17:16;18.50;54.70
20866;DHT22;10593;48.398;10.698;2023-05-10T15:19:42;18.50;54.70
20866;DHT22;10593;48.398;10.698;2023-05-10T15:22:08;18.50;54.80
20866;DHT22;10593;48.398;10.698;2023-05-10T15:24:34;18.50;55.00
20866;DHT22;10593;48.398;10.698;2023-05-10T15:26:59;18.50;55.00
20866;DHT22;10593;48.398;10.698;2023-05-10T15:29:26;18.40;54.90
20866;DHT22;10593;48.398;10.698;2023-05-10T15:31:51;18.40;55.20
20866;DHT22;10593;48.398;10.698;2023-05-10T15:34:18;18.40;54.90
20866;DHT22;10593;48.398;10.698;2023-05-10T15:36:44;18.40;55.10
20866;DHT22;10593;48.398;10.698;2023-05-10T15:39:11;18.40;55.50
20866;DHT22;10593;48.398;10.698;2023-05-10T15:41:37;18.40;55.70
20866;DHT22;10593;48.398;10.698;2023-05-10T15:44:03;18.40;55.70
20866;DHT22;10593;48.398;10.698;2023-05-10T15:46:29;18.40;56.00
20866;DHT22;10593;48.398;10.698;2023-05-10T15:48:57;18.30;55.90
20866;DHT22;10593;48.398;10.698;2023-05-10T15:51:24;18.30;55.90
20866;DHT22;10593;48.398;10.698;2023-05-10T15:53:50;18.30;55.90
20866;DHT22;10593;48.398;10.698;2023-05-10T15:56:15;18.30;55.90